createdAt,value
2022-11-16T00:01:16.987Z,10.02
2022-11-16T00:03:17.927Z,9.97
2022-11-16T00:05:19.750Z,10.04
2022-11-16T00:07:20.116Z,10.03
2022-11-16T00:09:21.059Z,10.05
2022-11-16T00:11:22.952Z,10.15
2022-11-16T00:13:24.404Z,10.11
2022-11-16T00:15:25.897Z,10.05
2022-11-16T00:17:27.486Z,10.12
2022-11-16T00:19:28.849Z,10.12
2022-11-16T00:21:30.426Z,10.06
2022-11-16T00:23:31.787Z,10.04
2022-11-16T00:27:34.524Z,10.16
2022-11-16T00:29:36.131Z,10.04
2022-11-16T00:31:37.114Z,9.87
2022-11-16T00:33:39.001Z,9.77
2022-11-16T00:35:40.578Z,9.71
2022-11-16T00:37:42.422Z,9.63
2022-11-16T00:39:43.687Z,9.65
2022-11-16T00:41:44.905Z,9.6
2022-11-16T00:43:46.403Z,9.53
2022-11-16T00:45:47.574Z,9.47
2022-11-16T00:47:49.287Z,9.39
2022-11-16T00:49:50.550Z,9.31
2022-11-16T00:51:52.159Z,9.26
2022-11-16T00:53:53.737Z,9.33
2022-11-16T00:55:55.291Z,9.51
2022-11-16T00:57:56.689Z,9.74
2022-11-16T00:59:58.608Z,9.9
2022-11-16T01:01:59.629Z,9.6
2022-11-16T01:04:01.085Z,9.49
2022-11-16T01:06:02.190Z,9.73
2022-11-16T01:08:03.895Z,9.8
2022-11-16T01:10:05.186Z,9.85
2022-11-16T01:12:06.539Z,9.89
2022-11-16T01:14:16.864Z,9.86
2022-11-16T01:16:09.201Z,9.82
2022-11-16T01:18:10.485Z,9.83
2022-11-16T01:20:12.276Z,9.69
2022-11-16T01:22:13.285Z,9.78
2022-11-16T01:24:14.917Z,9.73
2022-11-16T01:26:16.392Z,9.71
2022-11-16T01:28:18.050Z,9.68
2022-11-16T01:30:19.978Z,9.6
2022-11-16T01:32:20.980Z,9.62
2022-11-16T01:34:22.346Z,9.68
2022-11-16T01:36:23.603Z,9.76
2022-11-16T01:38:28.535Z,9.74
2022-11-16T01:41:10.318Z,9.61
2022-11-16T01:43:11.767Z,9.46
2022-11-16T01:45:12.715Z,9.36
2022-11-16T01:47:14.589Z,9.19
2022-11-16T01:49:15.858Z,9.22
2022-11-16T01:51:17.175Z,9.48
2022-11-16T01:53:18.443Z,9.42
2022-11-16T01:55:19.488Z,9.46
2022-11-16T01:57:20.522Z,9.41
2022-11-16T01:59:22.399Z,9.46
2022-11-16T02:01:23.484Z,9.35
2022-11-16T02:03:24.502Z,9.04
2022-11-16T02:05:25.758Z,8.96
2022-11-16T02:07:27.736Z,8.92
2022-11-16T02:09:29.469Z,8.95
2022-11-16T02:11:30.683Z,8.85
2022-11-16T02:13:32.411Z,8.83
2022-11-16T02:15:33.566Z,8.79
2022-11-16T02:17:34.596Z,8.79
2022-11-16T02:19:35.629Z,8.75
2022-11-16T02:21:37.347Z,8.74
2022-11-16T02:23:39.194Z,8.73
2022-11-16T02:25:40.358Z,8.78
2022-11-16T02:27:41.527Z,8.78
2022-11-16T02:29:42.534Z,8.77
2022-11-16T02:31:43.676Z,8.76
2022-11-16T02:33:45.374Z,8.82
2022-11-16T02:35:46.657Z,9.02
2022-11-16T02:37:47.856Z,9.11
2022-11-16T02:39:49.653Z,9.06
2022-11-16T02:41:50.767Z,8.9
2022-11-16T02:43:52.274Z,8.84
2022-11-16T02:45:54.136Z,9.03
2022-11-16T02:47:55.242Z,9.03
2022-11-16T02:49:56.366Z,8.95
2022-11-16T02:51:58.023Z,8.92
2022-11-16T02:53:59.648Z,8.84
2022-11-16T02:56:01.509Z,8.78
2022-11-16T02:58:02.613Z,8.76
2022-11-16T03:00:04.437Z,8.76
2022-11-16T03:02:06.196Z,8.7
2022-11-16T03:04:07.686Z,8.66
2022-11-16T03:06:08.922Z,8.6
2022-11-16T03:08:10.723Z,8.76
2022-11-16T03:10:12.259Z,8.79
2022-11-16T03:12:13.762Z,8.9
2022-11-16T03:14:14.882Z,9.1
2022-11-16T03:16:16.680Z,9.11
2022-11-16T03:18:18.517Z,9.22
2022-11-16T03:20:19.888Z,9.19
2022-11-16T03:22:21.584Z,9.13
2022-11-16T03:24:22.648Z,9.06
2022-11-16T03:26:23.885Z,8.89
2022-11-16T03:28:25.568Z,8.86
2022-11-16T03:30:26.887Z,8.82
2022-11-16T03:32:28.367Z,8.81
2022-11-16T03:34:29.444Z,8.85
2022-11-16T03:36:30.584Z,8.83
2022-11-16T03:38:31.931Z,9.15
2022-11-16T03:40:32.758Z,9.4
2022-11-16T03:42:34.575Z,9.32
2022-11-16T03:44:36.544Z,9.26
2022-11-16T03:46:38.440Z,9.26
2022-11-16T03:48:39.542Z,9.33
2022-11-16T03:50:40.544Z,9.27
2022-11-16T03:52:42.192Z,9.15
2022-11-16T03:54:43.697Z,9.07
2022-11-16T03:56:45.584Z,9.03
2022-11-16T03:58:47.225Z,8.97
2022-11-16T04:00:49.028Z,8.93
2022-11-16T04:02:50.366Z,8.9
2022-11-16T04:04:51.538Z,8.91
2022-11-16T04:06:53.199Z,8.9
2022-11-16T04:08:54.153Z,9.01
2022-11-16T04:10:55.978Z,9.1
2022-11-16T04:12:57.292Z,9.1
2022-11-16T04:14:59.110Z,9.2
2022-11-16T04:17:00.223Z,9.24
2022-11-16T04:19:01.487Z,9.25
2022-11-16T04:21:03.100Z,9.31
2022-11-16T04:23:04.781Z,9.3
2022-11-16T04:25:06.005Z,9.18
2022-11-16T04:27:07.462Z,9.05
2022-11-16T04:29:09.225Z,9.06
2022-11-16T04:31:10.592Z,9.11
2022-11-16T04:33:12.395Z,9.13
2022-11-16T04:35:14.202Z,9.13
2022-11-16T04:37:15.150Z,9.14
2022-11-16T04:39:16.788Z,9.15
2022-11-16T04:41:17.977Z,9.21
2022-11-16T04:43:19.540Z,9.26
2022-11-16T04:45:21.408Z,9.26
2022-11-16T04:47:22.468Z,9.3
2022-11-16T04:49:24.304Z,9.31
2022-11-16T04:51:25.250Z,9.34
2022-11-16T04:53:26.639Z,9.33
2022-11-16T04:55:27.968Z,9.36
2022-11-16T04:57:29.730Z,9.36
2022-11-16T04:59:31.022Z,9.41
2022-11-16T05:01:32.922Z,9.43
2022-11-16T05:03:34.312Z,9.42
2022-11-16T05:05:35.460Z,9.47
2022-11-16T05:09:38.520Z,9.53
2022-11-16T05:11:40.153Z,9.53
2022-11-16T05:13:41.253Z,9.54
2022-11-16T05:15:42.296Z,9.56
2022-11-16T05:17:44.173Z,9.56
2022-11-16T05:19:45.594Z,9.53
2022-11-16T05:21:46.747Z,9.49
2022-11-16T05:23:48.099Z,9.49
2022-11-16T05:25:49.302Z,9.48
2022-11-16T05:27:50.455Z,9.5
2022-11-16T05:29:52.012Z,9.47
2022-11-16T05:31:52.921Z,9.47
2022-11-16T05:33:54.001Z,9.49
2022-11-16T05:35:55.552Z,9.58
2022-11-16T05:37:56.632Z,9.55
2022-11-16T05:39:57.558Z,9.59
2022-11-16T05:41:59.281Z,9.56
2022-11-16T05:44:00.702Z,9.64
2022-11-16T05:46:02.444Z,9.67
2022-11-16T05:48:04.245Z,9.68
2022-11-16T05:50:05.977Z,9.69
2022-11-16T05:52:07.659Z,9.7
2022-11-16T05:54:09.177Z,9.75
2022-11-16T05:56:10.231Z,9.75
2022-11-16T05:58:11.214Z,9.72
2022-11-16T06:00:12.671Z,9.71
2022-11-16T06:02:14.196Z,9.72
2022-11-16T06:04:15.439Z,9.77
2022-11-16T06:06:16.673Z,9.76
2022-11-16T06:08:18.559Z,9.83
2022-11-16T06:10:19.552Z,9.86
2022-11-16T06:12:21.054Z,9.94
2022-11-16T06:14:22.245Z,9.92
2022-11-16T06:16:24.021Z,9.9
2022-11-16T06:18:25.661Z,9.88
2022-11-16T06:20:26.649Z,9.91
2022-11-16T06:22:28.459Z,9.89
2022-11-16T06:24:30.204Z,9.94
2022-11-16T06:26:31.157Z,9.89
2022-11-16T06:28:32.974Z,9.94
2022-11-16T06:30:34.481Z,9.9
2022-11-16T06:32:35.641Z,9.93
2022-11-16T06:34:37.081Z,9.9
2022-11-16T06:36:38.374Z,9.94
2022-11-16T06:38:39.644Z,9.94
2022-11-16T06:40:41.605Z,9.91
2022-11-16T06:42:43.204Z,9.94
2022-11-16T06:44:44.559Z,9.94
2022-11-16T06:46:46.442Z,9.95
2022-11-16T06:48:47.550Z,9.93
2022-11-16T06:50:49.291Z,9.98
2022-11-16T06:52:51.079Z,9.96
2022-11-16T06:54:52.094Z,9.98
2022-11-16T06:56:53.577Z,10.01
2022-11-16T06:58:54.953Z,10.03
2022-11-16T07:00:56.256Z,10.02
2022-11-16T07:02:57.303Z,10.01
2022-11-16T07:05:03.267Z,10.01
2022-11-16T07:07:00.243Z,10.01
2022-11-16T07:09:01.492Z,10
2022-11-16T07:11:04.234Z,10.01
2022-11-16T07:13:04.665Z,9.99
2022-11-16T07:15:06.446Z,10.02
2022-11-16T07:17:09.589Z,10
2022-11-16T07:19:18.237Z,9.99
2022-11-16T07:21:10.885Z,10.01
2022-11-16T07:23:14.240Z,10.02
2022-11-16T07:25:13.747Z,10.02
2022-11-16T07:27:15.613Z,9.99
2022-11-16T07:29:17.209Z,10.02
2022-11-16T07:31:18.537Z,10.04
2022-11-16T07:33:19.847Z,10.04
2022-11-16T07:35:21.376Z,10.03
2022-11-16T07:37:23.253Z,10.03
2022-11-16T07:39:24.727Z,10.04
2022-11-16T07:41:26.513Z,10.04
2022-11-16T07:43:27.461Z,10.04
2022-11-16T07:45:28.766Z,10.05
2022-11-16T07:47:29.810Z,10.05
2022-11-16T07:49:30.898Z,10.03
2022-11-16T07:51:32.648Z,10.05
2022-11-16T07:53:34.431Z,10.06
2022-11-16T07:55:37.387Z,10.06
2022-11-16T07:57:37.643Z,10.11
2022-11-16T07:59:38.866Z,10.14
2022-11-16T08:01:40.781Z,10.16
2022-11-16T08:03:42.183Z,10.16
2022-11-16T08:05:43.864Z,10.17
2022-11-16T08:07:45.699Z,10.2
2022-11-16T08:09:47.601Z,10.18
2022-11-16T08:11:48.723Z,10.19
2022-11-16T08:15:51.522Z,10.22
2022-11-16T08:17:52.520Z,10.27
2022-11-16T08:19:53.807Z,10.31
2022-11-16T08:21:54.750Z,10.32
2022-11-16T08:23:58.614Z,10.36
2022-11-16T08:26:41.042Z,10.43
2022-11-16T08:28:42.673Z,10.44
2022-11-16T08:30:46.382Z,10.44
2022-11-16T08:32:46.036Z,10.42
2022-11-16T08:34:47.268Z,10.45
2022-11-16T08:36:48.479Z,10.47
2022-11-16T08:38:49.728Z,10.48
2022-11-16T08:40:50.981Z,10.47
2022-11-16T08:42:52.190Z,10.51
2022-11-16T08:44:53.601Z,10.51
2022-11-16T08:46:55.261Z,10.55
2022-11-16T08:48:56.617Z,10.61
2022-11-16T08:51:16.263Z,10.67
2022-11-16T08:52:59.861Z,10.65
2022-11-16T08:55:01.435Z,10.7
2022-11-16T08:57:02.354Z,10.68
2022-11-16T08:59:03.555Z,10.76
2022-11-16T09:01:05.402Z,10.75
2022-11-16T09:03:07.124Z,10.8
2022-11-16T09:05:08.573Z,10.84
2022-11-16T09:07:09.859Z,10.83
2022-11-16T09:09:11.338Z,10.86
2022-11-16T09:11:13.220Z,10.97
2022-11-16T09:13:14.589Z,11
2022-11-16T09:15:15.491Z,11.05
2022-11-16T09:17:21.849Z,11.09
2022-11-16T09:19:18.977Z,11.01
2022-11-16T09:21:19.905Z,11.1
2022-11-16T09:23:25.230Z,11.1
2022-11-16T09:25:23.006Z,11.03
2022-11-16T09:27:24.712Z,11.08
2022-11-16T09:29:25.970Z,11.17
2022-11-16T09:31:27.752Z,11.24
2022-11-16T09:33:28.848Z,11.26
2022-11-16T09:35:30.687Z,11.3
2022-11-16T09:37:31.955Z,11.33
2022-11-16T09:39:33.048Z,11.29
2022-11-16T09:41:34.521Z,11.31
2022-11-16T09:43:38.490Z,11.31
2022-11-16T09:45:36.846Z,11.36
2022-11-16T09:47:38.024Z,11.34
2022-11-16T09:49:39.333Z,11.37
2022-11-16T09:51:40.377Z,11.37
2022-11-16T09:53:41.683Z,11.46
2022-11-16T09:55:42.913Z,11.4
2022-11-16T09:57:44.745Z,11.53
2022-11-16T09:59:45.745Z,11.57
2022-11-16T10:01:46.983Z,11.7
2022-11-16T10:03:48.111Z,11.52
2022-11-16T10:05:49.714Z,11.52
2022-11-16T10:07:51.063Z,11.49
2022-11-16T10:09:52.700Z,11.61
2022-11-16T10:11:53.995Z,11.64
2022-11-16T10:13:57.903Z,11.69
2022-11-16T10:15:56.948Z,11.78
2022-11-16T10:17:58.494Z,11.75
2022-11-16T10:20:00.657Z,11.78
2022-11-16T10:22:01.946Z,11.82
2022-11-16T10:24:02.859Z,11.72
2022-11-16T10:26:04.500Z,11.83
2022-11-16T10:28:06.211Z,11.79
2022-11-16T10:30:07.257Z,11.88
2022-11-16T10:32:08.505Z,11.89
2022-11-16T10:34:09.672Z,12.12
2022-11-16T10:36:11.205Z,12.06
2022-11-16T10:38:12.439Z,12.06
2022-11-16T10:40:13.458Z,11.9
2022-11-16T10:42:14.653Z,12.08
2022-11-16T10:44:15.712Z,12.33
2022-11-16T10:46:17.187Z,12.47
2022-11-16T10:48:18.758Z,12.29
2022-11-16T10:50:20.531Z,12.79
2022-11-16T10:52:21.647Z,12.78
2022-11-16T10:54:22.899Z,12.82
2022-11-16T10:56:24.097Z,12.85
2022-11-16T10:58:25.974Z,12.68
2022-11-16T11:00:27.038Z,12.66
2022-11-16T11:02:28.839Z,12.36
2022-11-16T11:04:30.360Z,12.32
2022-11-16T11:06:31.318Z,12.54
2022-11-16T11:08:32.995Z,12.16
2022-11-16T11:10:34.473Z,12.06
2022-11-16T11:12:35.781Z,12.1
2022-11-16T11:14:36.939Z,11.88
2022-11-16T11:16:38.534Z,11.87
2022-11-16T11:18:40.326Z,11.89
2022-11-16T11:20:44.634Z,11.79
2022-11-16T11:22:43.077Z,11.74
2022-11-16T11:24:45.237Z,11.76
2022-11-16T11:26:46.174Z,11.77
2022-11-16T11:28:47.311Z,11.75
2022-11-16T11:30:48.860Z,11.74
2022-11-16T11:32:49.945Z,11.81
2022-11-16T11:34:51.775Z,11.74
2022-11-16T11:36:52.991Z,11.75
2022-11-16T11:38:54.365Z,11.82
2022-11-16T11:40:55.771Z,12.32
2022-11-16T11:42:57.327Z,12.78
2022-11-16T11:44:58.595Z,12.82
2022-11-16T11:47:50.754Z,12.78
2022-11-16T11:49:02.216Z,12.45
2022-11-16T11:51:03.166Z,12.31
2022-11-16T11:53:04.652Z,12.29
2022-11-16T11:55:06.365Z,12.37
2022-11-16T11:57:07.260Z,12.5
2022-11-16T11:59:08.930Z,12.7
2022-11-16T12:01:10.596Z,12.76
2022-11-16T12:05:12.729Z,12.78
2022-11-16T12:07:13.706Z,12.71
2022-11-16T12:09:14.928Z,12.51
2022-11-16T12:11:16.387Z,12.55
2022-11-16T12:13:17.307Z,12.44
2022-11-16T12:15:19.085Z,12.36
2022-11-16T12:17:20.834Z,12.15
2022-11-16T12:19:21.812Z,12.07
2022-11-16T12:21:23.644Z,12.03
2022-11-16T12:23:24.681Z,12.02
2022-11-16T12:25:25.695Z,12
2022-11-16T12:27:26.695Z,11.96
2022-11-16T12:29:27.952Z,11.89
2022-11-16T12:31:29.371Z,11.91
2022-11-16T12:33:30.452Z,11.85
2022-11-16T12:35:32.048Z,11.89
2022-11-16T12:37:33.311Z,11.93
2022-11-16T12:39:34.452Z,11.85
2022-11-16T12:41:35.847Z,11.84
2022-11-16T12:43:37.527Z,11.83
2022-11-16T12:45:38.886Z,11.81
2022-11-16T12:47:40.684Z,12.11
2022-11-16T12:49:41.747Z,12.53
2022-11-16T12:51:42.960Z,12.81
2022-11-16T12:53:44.434Z,12.99
2022-11-16T12:55:45.391Z,13.31
2022-11-16T12:57:46.429Z,13.17
2022-11-16T12:59:47.743Z,13.83
2022-11-16T13:01:48.745Z,13.7
2022-11-16T13:03:49.669Z,13.48
2022-11-16T13:05:51.385Z,13.23
2022-11-16T13:07:52.360Z,13.25
2022-11-16T13:09:54.154Z,13.06
2022-11-16T13:11:55.004Z,12.79
2022-11-16T13:13:57.265Z,12.79
2022-11-16T13:15:58.273Z,12.76
2022-11-16T13:17:59.200Z,12.76
2022-11-16T13:20:00.924Z,12.6
2022-11-16T13:22:02.448Z,12.46
2022-11-16T13:24:03.292Z,12.38
2022-11-16T13:26:04.512Z,12.29
2022-11-16T13:28:05.451Z,12.19
2022-11-16T13:30:06.489Z,12.41
2022-11-16T13:32:07.415Z,12.36
2022-11-16T13:34:08.503Z,12.6
2022-11-16T13:36:10.338Z,12.8
2022-11-16T13:38:11.229Z,12.69
2022-11-16T13:40:12.389Z,12.86
2022-11-16T13:42:13.935Z,13.3
2022-11-16T13:44:14.879Z,13.47
2022-11-16T13:46:40.724Z,13.31
2022-11-16T13:48:17.948Z,13.25
2022-11-16T13:50:19.528Z,13.05
2022-11-16T13:52:24.965Z,12.77
2022-11-16T13:54:45.551Z,12.34
2022-11-16T13:56:28.528Z,12.32
2022-11-16T13:58:24.797Z,12.28
2022-11-16T14:00:26.275Z,12.32
2022-11-16T14:02:27.354Z,12.16
2022-11-16T14:04:28.949Z,12.23
2022-11-16T14:06:30.277Z,12.28
2022-11-16T14:08:32.056Z,12.37
2022-11-16T14:10:33.279Z,12.77
2022-11-16T14:12:34.646Z,12.72
2022-11-16T14:14:35.637Z,12.8
2022-11-16T14:16:36.932Z,13.05
2022-11-16T14:18:38.444Z,12.98
2022-11-16T14:20:39.534Z,13.09
2022-11-16T14:22:40.974Z,12.99
2022-11-16T14:24:42.039Z,12.87
2022-11-16T14:26:42.972Z,12.49
2022-11-16T14:28:44.610Z,12.43
2022-11-16T14:30:45.898Z,12.33
2022-11-16T14:32:46.856Z,12.1
2022-11-16T14:34:48.460Z,11.89
2022-11-16T14:36:49.588Z,11.79
2022-11-16T14:38:50.919Z,11.67
2022-11-16T14:40:54.903Z,11.68
2022-11-16T14:43:15.204Z,11.65
2022-11-16T14:44:55.139Z,11.63
2022-11-16T14:46:56.545Z,11.59
2022-11-16T14:48:58.114Z,11.53
2022-11-16T14:50:59.285Z,11.54
2022-11-16T14:53:00.532Z,11.49
2022-11-16T14:55:01.871Z,11.44
2022-11-16T14:57:03.635Z,11.41
2022-11-16T14:59:04.611Z,11.37
2022-11-16T15:01:06.304Z,11.4
2022-11-16T15:03:07.251Z,11.39
2022-11-16T15:05:08.871Z,11.41
2022-11-16T15:07:10.157Z,11.38
2022-11-16T15:09:11.306Z,11.35
2022-11-16T15:11:56.999Z,11.38
2022-11-16T15:13:57.902Z,11.32
2022-11-16T15:15:59.155Z,11.3
2022-11-16T15:18:00.155Z,11.22
2022-11-16T15:22:02.844Z,11.08
2022-11-16T15:24:29.750Z,10.96
2022-11-16T15:26:05.371Z,10.87
2022-11-16T15:28:07.107Z,10.88
2022-11-16T15:30:08.606Z,10.84
2022-11-16T15:32:09.843Z,10.71
2022-11-16T15:34:11.699Z,10.6
2022-11-16T15:36:13.265Z,10.32
2022-11-16T15:38:15.097Z,10.28
2022-11-16T15:40:16.686Z,10.33
2022-11-16T15:42:18.500Z,10.31
2022-11-16T15:44:20.271Z,10.18
2022-11-16T15:46:22.063Z,10.05
2022-11-16T15:48:23.265Z,9.86
2022-11-16T15:50:24.483Z,9.72
2022-11-16T15:52:26.304Z,9.61
2022-11-16T15:54:27.680Z,9.54
2022-11-16T15:56:29.392Z,9.56
2022-11-16T15:58:31.487Z,9.45
2022-11-16T16:00:33.243Z,9.25
2022-11-16T16:02:34.339Z,9.11
2022-11-16T16:04:35.735Z,9.02
2022-11-16T16:06:36.727Z,8.96
2022-11-16T16:08:38.168Z,8.83
2022-11-16T16:10:39.565Z,8.75
2022-11-16T16:12:40.964Z,8.64
2022-11-16T16:14:42.309Z,8.71
2022-11-16T16:16:44.023Z,8.77
2022-11-16T16:18:45.383Z,9.05
2022-11-16T16:20:46.954Z,9.14
2022-11-16T16:22:48.056Z,9.23
2022-11-16T16:24:49.047Z,9.29
2022-11-16T16:26:50.233Z,9.36
2022-11-16T16:28:51.761Z,9.32
2022-11-16T16:30:53.221Z,9.43
2022-11-16T16:32:54.956Z,9.33
2022-11-16T16:34:56.704Z,9.16
2022-11-16T16:36:57.899Z,8.83
2022-11-16T16:38:59.011Z,8.69
2022-11-16T16:41:00.300Z,8.65
2022-11-16T16:43:01.258Z,8.63
2022-11-16T16:45:02.533Z,8.69
2022-11-16T16:47:04.328Z,8.63
2022-11-16T16:49:05.320Z,8.61
2022-11-16T16:51:06.942Z,8.55
2022-11-16T16:53:08.431Z,8.47
2022-11-16T16:55:10.289Z,8.4
2022-11-16T16:57:12.003Z,8.38
2022-11-16T16:59:13.912Z,8.38
2022-11-16T17:01:15.600Z,8.34
2022-11-16T17:03:17.143Z,8.42
2022-11-16T17:05:18.209Z,8.4
2022-11-16T17:07:19.264Z,8.43
2022-11-16T17:09:29.684Z,8.38
2022-11-16T17:11:22.301Z,8.38
2022-11-16T17:13:23.273Z,8.36
2022-11-16T17:15:24.996Z,8.43
2022-11-16T17:17:25.999Z,8.43
2022-11-16T17:19:27.689Z,8.58
2022-11-16T17:21:29.376Z,8.93
2022-11-16T17:23:30.859Z,8.97
2022-11-16T17:25:32.814Z,9.04
2022-11-16T17:27:34.728Z,9.15
2022-11-16T17:29:36.512Z,9.4
2022-11-16T17:31:37.464Z,9.45
2022-11-16T17:33:38.432Z,9.46
2022-11-16T17:35:39.961Z,9.41
2022-11-16T17:37:41.023Z,9.42
2022-11-16T17:39:42.865Z,9.48
2022-11-16T17:41:44.013Z,9.41
2022-11-16T17:45:46.909Z,9.17
2022-11-16T17:47:47.944Z,9.25
2022-11-16T17:49:49.754Z,9.14
2022-11-16T17:51:50.887Z,9.14
2022-11-16T17:53:52.260Z,9.01
2022-11-16T17:55:53.336Z,8.82
2022-11-16T17:57:54.847Z,8.72
2022-11-16T17:59:56.689Z,8.69
2022-11-16T18:01:58.559Z,8.77
2022-11-16T18:03:59.923Z,8.71
2022-11-16T18:06:00.912Z,8.71
2022-11-16T18:08:02.797Z,8.63
2022-11-16T18:10:04.415Z,8.52
2022-11-16T18:12:05.936Z,8.44
2022-11-16T18:14:06.999Z,8.45
2022-11-16T18:16:08.046Z,8.7
2022-11-16T18:18:18.889Z,8.83
2022-11-16T18:20:11.775Z,8.99
2022-11-16T18:22:12.940Z,8.89
2022-11-16T18:24:13.904Z,8.93
2022-11-16T18:26:15.434Z,9.01
2022-11-16T18:28:16.744Z,9.07
2022-11-16T18:30:17.843Z,9.44
2022-11-16T18:32:19.170Z,9.63
2022-11-16T18:34:20.767Z,9.65
2022-11-16T18:36:22.292Z,9.6
2022-11-16T18:38:23.333Z,9.62
2022-11-16T18:40:24.606Z,9.58
2022-11-16T18:42:25.643Z,9.6
2022-11-16T18:44:26.669Z,9.57
2022-11-16T18:46:27.913Z,9.69
2022-11-16T18:48:29.034Z,9.77
2022-11-16T18:50:30.159Z,9.69
2022-11-16T18:52:32.062Z,9.46
2022-11-16T18:54:33.451Z,9.56
2022-11-16T18:56:34.506Z,9.8
2022-11-16T18:58:49.649Z,9.76
2022-11-16T19:00:37.493Z,9.84
2022-11-16T19:02:39.047Z,9.6
2022-11-16T19:04:40.147Z,9.43
2022-11-16T19:06:41.336Z,9.55
2022-11-16T19:08:42.883Z,9.5
2022-11-16T19:10:43.983Z,9.38
2022-11-16T19:12:45.093Z,9.32
2022-11-16T19:14:47.049Z,9.69
2022-11-16T19:16:51.301Z,9.78
2022-11-16T19:18:49.656Z,9.34
2022-11-16T19:20:51.431Z,9.46
2022-11-16T19:22:52.986Z,9.89
2022-11-16T19:24:54.699Z,10.16
2022-11-16T19:26:55.920Z,10
2022-11-16T19:28:57.252Z,9.94
2022-11-16T19:30:58.887Z,9.96
2022-11-16T19:33:00.350Z,9.8
2022-11-16T19:35:01.882Z,9.77
2022-11-16T19:37:03.056Z,9.56
2022-11-16T19:39:04.429Z,9.29
2022-11-16T19:41:05.443Z,9.26
2022-11-16T19:43:07.297Z,9.55
2022-11-16T19:45:09.188Z,9.57
2022-11-16T19:47:10.404Z,9.8
2022-11-16T19:49:15.741Z,9.72
2022-11-16T19:51:14.137Z,9.54
2022-11-16T19:53:15.762Z,9.53
2022-11-16T19:55:16.808Z,9.3
2022-11-16T19:57:18.574Z,9.19
2022-11-16T19:59:19.550Z,9.16
2022-11-16T20:01:21.025Z,9.18
2022-11-16T20:03:22.114Z,8.95
2022-11-16T20:05:23.496Z,9.14
2022-11-16T20:09:25.855Z,9.2
